createdAt,value
2023-04-23T18:49:11.575Z,14.02
2023-04-23T18:50:45.820Z,14.06
2023-04-23T18:51:52.992Z,14.13
2023-04-23T18:52:56.898Z,14.13
2023-04-23T18:54:02.286Z,14.16
2023-04-23T18:55:06.469Z,14.21
2023-04-23T18:56:10.475Z,14.24
2023-04-23T18:57:14.406Z,14.27
2023-04-23T18:58:18.247Z,13.41
2023-04-23T18:59:22.210Z,13.41
2023-04-23T19:00:31.110Z,14.30
2023-04-23T19:01:34.961Z,14.34
2023-04-23T19:02:40.779Z,14.34
2023-04-23T19:03:44.864Z,14.37
2023-04-23T19:04:49.241Z,14.37
2023-04-23T19:05:55.736Z,14.38
2023-04-23T19:07:00.467Z,14.39
2023-04-23T19:08:04.394Z,14.41
2023-04-23T19:09:08.466Z,14.41
2023-04-23T19:10:16.202Z,14.38
2023-04-23T19:11:20.233Z,14.38
2023-04-23T19:12:24.250Z,14.38
2023-04-23T19:13:32.327Z,14.38
2023-04-23T19:14:36.589Z,14.38
2023-04-23T19:15:40.682Z,14.39
2023-04-23T19:16:44.819Z,14.37
2023-04-23T19:17:56.766Z,14.37
2023-04-23T19:19:00.728Z,14.37
2023-04-23T19:20:04.977Z,14.35
2023-04-23T19:21:08.826Z,14.34
2023-04-23T19:22:12.767Z,14.34
2023-04-23T19:23:16.658Z,14.32
2023-04-23T19:24:20.624Z,14.29
2023-04-23T19:25:26.146Z,14.28
2023-04-23T19:26:30.223Z,14.28
2023-04-23T19:27:34.893Z,14.27
2023-04-23T19:28:38.843Z,13.65
2023-04-23T19:29:43.050Z,14.24
2023-04-23T19:30:47.225Z,14.21
2023-04-23T19:31:51.151Z,14.19
2023-04-23T19:32:55.254Z,14.16
2023-04-23T19:33:59.253Z,14.15
2023-04-23T19:35:04.133Z,14.15
2023-04-23T19:36:09.851Z,14.12
2023-04-23T19:37:13.722Z,14.11
2023-04-23T19:40:00.945Z,14.10
2023-04-23T19:41:06.393Z,14.05
2023-04-23T19:42:30.875Z,13.43
2023-04-23T19:43:34.946Z,14.00
2023-04-23T19:44:41.508Z,13.98
2023-04-23T19:45:45.454Z,13.95
2023-04-23T19:46:49.326Z,13.95
2023-04-23T19:47:54.018Z,13.95
2023-04-23T19:48:57.921Z,13.94
2023-04-23T19:50:05.833Z,13.93
2023-04-23T19:51:11.444Z,13.93
2023-04-23T19:52:37.223Z,13.93
2023-04-23T19:53:41.247Z,13.90
2023-04-23T19:54:48.412Z,13.87
2023-04-23T19:55:52.329Z,13.87
2023-04-23T19:57:02.320Z,13.85
2023-04-23T19:58:08.328Z,13.84
2023-04-23T19:59:11.941Z,13.81
2023-04-23T20:00:20.560Z,13.80
2023-04-23T20:01:29.047Z,13.77
2023-04-23T20:02:39.693Z,13.75
2023-04-23T20:04:01.785Z,13.75
2023-04-23T20:05:06.243Z,13.73
2023-04-23T20:06:10.305Z,13.70
2023-04-23T20:07:15.391Z,13.65
2023-04-23T20:08:19.323Z,13.65
2023-04-23T20:09:23.271Z,13.65
2023-04-23T20:10:29.956Z,13.60
2023-04-23T20:11:37.202Z,13.60
2023-04-23T20:12:41.062Z,13.54
2023-04-23T20:13:56.935Z,13.54
2023-04-23T20:15:00.876Z,13.48
2023-04-23T20:16:05.266Z,13.48
2023-04-23T20:17:11.293Z,13.44
2023-04-23T20:18:16.760Z,13.39
2023-04-23T20:19:20.611Z,13.37
2023-04-23T20:20:24.683Z,13.37
2023-04-23T20:21:28.686Z,13.33
2023-04-23T20:22:36.834Z,13.32
2023-04-23T20:23:40.854Z,13.28
2023-04-23T20:24:46.641Z,13.28
2023-04-23T20:25:50.694Z,13.26
2023-04-23T20:26:54.773Z,13.26
2023-04-23T20:27:58.860Z,13.24
2023-04-23T20:29:04.783Z,13.21
2023-04-23T20:30:10.969Z,13.20
2023-04-23T20:31:17.993Z,13.17
2023-04-23T20:32:22.544Z,13.17
2023-04-23T20:33:26.501Z,13.16
2023-04-23T20:34:30.559Z,13.13
2023-04-23T20:35:34.542Z,13.10
2023-04-23T20:36:38.513Z,13.10
2023-04-23T20:37:42.373Z,13.05
2023-04-23T20:38:57.625Z,13.05
2023-04-23T20:39:51.830Z,13.01
2023-04-23T20:40:55.672Z,13.00
2023-04-23T20:42:01.208Z,13.00
2023-04-23T20:43:05.348Z,13.00
2023-04-23T20:44:10.048Z,12.98
2023-04-23T20:45:13.977Z,12.98
2023-04-23T20:46:18.042Z,12.97
2023-04-23T20:47:24.667Z,12.97
2023-04-23T20:48:30.806Z,12.96
2023-04-23T20:49:36.405Z,12.96
2023-04-23T20:50:43.994Z,12.93
2023-04-23T20:51:47.608Z,12.92
2023-04-23T20:52:52.481Z,12.90
2023-04-23T20:53:58.121Z,12.89
2023-04-23T20:55:05.488Z,12.88
2023-04-23T20:56:08.942Z,12.88
2023-04-23T20:57:12.924Z,12.85
2023-04-23T20:58:16.978Z,12.82
2023-04-23T20:59:22.339Z,12.82
2023-04-23T21:00:27.353Z,12.79
2023-04-23T21:01:31.406Z,12.79
2023-04-23T21:02:35.986Z,12.76
2023-04-23T21:03:40.976Z,12.75
2023-04-23T21:04:44.933Z,12.73
2023-04-23T21:05:48.780Z,12.73
2023-04-23T21:06:52.785Z,12.70
2023-04-23T21:07:56.701Z,12.70
2023-04-23T21:09:00.729Z,12.69
2023-04-23T21:10:05.993Z,12.66
2023-04-23T21:11:17.738Z,12.65
2023-04-23T21:12:21.841Z,12.65
2023-04-23T21:13:25.943Z,12.62
2023-04-23T21:14:30.274Z,12.58
2023-04-23T21:15:34.208Z,12.58
2023-04-23T21:16:38.883Z,12.57
2023-04-23T21:17:43.147Z,12.52
2023-04-23T21:18:47.055Z,12.51
2023-04-23T21:19:51.592Z,12.50
2023-04-23T21:20:55.559Z,12.50
2023-04-23T21:22:01.517Z,12.46
2023-04-23T21:23:05.276Z,12.47
2023-04-23T21:24:09.207Z,12.47
2023-04-23T21:25:13.036Z,12.46
2023-04-23T21:26:17.061Z,12.46
2023-04-23T21:27:20.974Z,12.46
2023-04-23T21:28:25.343Z,12.43
2023-04-23T21:29:31.577Z,12.42
2023-04-23T21:30:48.006Z,12.42
2023-04-23T21:31:53.224Z,12.40
2023-04-23T21:32:57.334Z,12.38
2023-04-23T21:34:01.411Z,12.34
2023-04-23T21:35:06.074Z,12.33
2023-04-23T21:36:11.599Z,12.29
2023-04-23T21:37:15.435Z,12.27
2023-04-23T21:38:20.788Z,12.26
2023-04-23T21:39:24.669Z,12.25
2023-04-23T21:40:28.652Z,12.24
2023-04-23T21:41:32.711Z,12.23
2023-04-23T21:42:36.890Z,12.22
2023-04-23T21:43:40.825Z,12.21
2023-04-23T21:44:44.815Z,12.20
2023-04-23T21:45:48.850Z,12.20
2023-04-23T21:46:52.866Z,12.19
2023-04-23T21:47:56.899Z,12.17
2023-04-23T21:49:00.884Z,12.16
2023-04-23T21:50:05.133Z,12.13
2023-04-23T21:51:09.118Z,12.13
2023-04-23T21:52:13.027Z,12.11
2023-04-23T21:53:16.876Z,12.09
2023-04-23T21:54:21.206Z,12.08
2023-04-23T21:55:27.859Z,12.08
2023-04-23T21:56:31.947Z,12.07
2023-04-23T21:57:35.944Z,12.03
2023-04-23T21:58:39.868Z,12.02
2023-04-23T21:59:44.103Z,12.00
2023-04-23T22:00:48.296Z,11.99
2023-04-23T22:01:52.268Z,11.99
2023-04-23T22:02:58.052Z,11.97
2023-04-23T22:04:07.866Z,11.97
2023-04-23T22:05:09.131Z,11.97
2023-04-23T22:06:13.641Z,11.96
2023-04-23T22:07:17.621Z,11.95
2023-04-23T22:08:21.540Z,11.91
2023-04-23T22:09:25.558Z,11.91
2023-04-23T22:10:29.596Z,11.89
2023-04-23T22:11:33.575Z,11.87
2023-04-23T22:12:38.488Z,11.87
2023-04-23T22:13:45.493Z,11.86
2023-04-23T22:14:49.314Z,11.86
2023-04-23T22:15:53.333Z,11.86
2023-04-23T22:16:57.366Z,11.84
2023-04-23T22:18:01.313Z,11.82
2023-04-23T22:19:05.245Z,11.79
2023-04-23T22:20:11.615Z,11.79
2023-04-23T22:21:15.559Z,11.79
2023-04-23T22:23:50.915Z,11.69
2023-04-23T22:24:54.803Z,11.69
2023-04-23T22:25:58.749Z,11.65
2023-04-23T22:27:02.599Z,11.65
2023-04-23T22:28:06.572Z,11.63
2023-04-23T22:29:10.644Z,11.62
2023-04-23T22:30:14.836Z,11.62
2023-04-23T22:31:20.551Z,11.57
2023-04-23T22:32:24.539Z,11.57
2023-04-23T22:33:28.435Z,11.54
2023-04-23T22:34:32.492Z,11.54
2023-04-23T22:35:36.454Z,11.56
2023-04-23T22:36:40.386Z,11.56
2023-04-23T22:37:47.104Z,11.55
2023-04-23T22:38:50.063Z,11.54
2023-04-23T22:39:54.091Z,11.54
2023-04-23T22:40:58.011Z,11.55
2023-04-23T22:42:01.854Z,11.55
2023-04-23T22:43:05.739Z,11.55
2023-04-23T22:44:09.632Z,11.55
2023-04-23T22:45:13.476Z,11.53
2023-04-23T22:46:17.484Z,11.51
2023-04-23T22:47:21.598Z,11.51
2023-04-23T22:48:25.617Z,11.51
2023-04-23T22:49:29.597Z,11.51
2023-04-23T22:50:33.701Z,11.52
2023-04-23T22:51:37.614Z,11.52
2023-04-23T22:52:41.623Z,11.52
2023-04-23T22:53:47.076Z,11.54
2023-04-23T22:54:52.653Z,11.54
2023-04-23T22:55:58.310Z,11.53
2023-04-23T22:57:02.670Z,11.54
2023-04-23T22:58:07.935Z,11.54
2023-04-23T22:59:13.601Z,11.54
2023-04-23T23:00:17.577Z,11.53
2023-04-23T23:01:21.634Z,11.35
2023-04-23T23:02:25.635Z,11.50
2023-04-23T23:03:29.884Z,11.51
2023-04-23T23:04:34.226Z,11.51
2023-04-23T23:05:38.261Z,11.47
2023-04-23T23:06:42.248Z,11.46
2023-04-23T23:07:46.060Z,11.46
2023-04-23T23:08:50.068Z,11.44
2023-04-23T23:09:53.974Z,11.41
2023-04-23T23:10:57.986Z,11.40
2023-04-23T23:12:03.518Z,11.38
2023-04-23T23:13:07.608Z,11.39
2023-04-23T23:14:11.650Z,11.39
2023-04-23T23:15:15.655Z,11.38
2023-04-23T23:16:19.564Z,11.38
2023-04-23T23:17:23.478Z,11.37
2023-04-23T23:18:27.436Z,11.36
2023-04-23T23:19:31.436Z,11.36
2023-04-23T23:20:35.468Z,11.36
2023-04-23T23:21:39.509Z,11.36
2023-04-23T23:22:43.584Z,11.36
2023-04-23T23:23:47.460Z,11.34
2023-04-23T23:24:51.437Z,11.32
2023-04-23T23:25:55.630Z,11.29
2023-04-23T23:26:59.761Z,11.27
2023-04-23T23:28:03.593Z,11.24
2023-04-23T23:29:07.604Z,11.24
2023-04-23T23:30:11.755Z,11.18
2023-04-23T23:31:15.804Z,11.18
2023-04-23T23:32:19.720Z,11.13
2023-04-23T23:33:23.784Z,11.13
2023-04-23T23:34:29.705Z,11.14
2023-04-23T23:35:33.225Z,11.14
2023-04-23T23:36:38.563Z,11.14
2023-04-23T23:37:42.542Z,11.12
2023-04-23T23:38:46.434Z,11.09
2023-04-23T23:39:50.249Z,11.09
2023-04-23T23:40:54.182Z,11.06
2023-04-23T23:41:59.997Z,10.97
2023-04-23T23:43:03.930Z,10.93
2023-04-23T23:44:07.720Z,10.92
2023-04-23T23:45:11.940Z,10.93
2023-04-23T23:46:16.175Z,10.93
2023-04-23T23:47:20.299Z,10.94
2023-04-23T23:48:24.322Z,10.96
2023-04-23T23:49:28.101Z,10.97
2023-04-23T23:50:32.786Z,10.97
2023-04-23T23:51:39.685Z,10.94
2023-04-23T23:52:43.648Z,10.91
2023-04-23T23:53:47.443Z,10.88
2023-04-23T23:54:51.413Z,10.83
2023-04-23T23:55:55.256Z,10.80
2023-04-23T23:56:59.204Z,10.72
2023-04-23T23:58:03.005Z,10.67
2023-04-23T23:59:06.893Z,10.66
